createdAt,value
2019-05-16T00:00:44.092Z,0.00
2019-05-16T00:01:44.214Z,0.00
2019-05-16T00:02:44.071Z,0.00
2019-05-16T00:03:44.079Z,0.00
2019-05-16T00:04:44.022Z,0.00
2019-05-16T00:05:53.298Z,0.00
2019-05-16T00:06:44.011Z,0.00
2019-05-16T00:07:44.021Z,0.00
2019-05-16T00:08:43.999Z,0.00
2019-05-16T00:09:44.014Z,0.00
2019-05-16T00:10:44.007Z,0.00
2019-05-16T00:11:43.945Z,0.00
2019-05-16T00:12:43.918Z,0.00
2019-05-16T00:13:43.933Z,0.00
2019-05-16T00:14:43.908Z,0.00
2019-05-16T00:15:43.875Z,0.00
2019-05-16T00:16:43.994Z,0.00
2019-05-16T00:17:43.858Z,0.00
2019-05-16T00:18:43.865Z,0.00
2019-05-16T00:19:43.852Z,0.00
2019-05-16T00:20:43.867Z,0.00
2019-05-16T00:21:43.838Z,0.00
2019-05-16T00:22:43.826Z,0.00
2019-05-16T00:23:43.737Z,0.00
2019-05-16T00:24:43.707Z,0.00
2019-05-16T00:25:43.781Z,0.00
2019-05-16T00:26:43.653Z,0.00
2019-05-16T00:27:43.669Z,0.00
2019-05-16T00:28:43.705Z,0.00
2019-05-16T00:29:43.653Z,0.00
2019-05-16T00:30:43.611Z,0.00
2019-05-16T00:31:43.578Z,0.00
2019-05-16T00:32:43.597Z,0.00
2019-05-16T00:33:43.594Z,0.00
2019-05-16T00:34:43.565Z,0.00
2019-05-16T00:35:43.493Z,0.00
2019-05-16T00:36:43.492Z,0.00
2019-05-16T00:37:43.456Z,0.00
2019-05-16T00:38:43.434Z,0.00
2019-05-16T00:39:43.416Z,0.00
2019-05-16T00:40:43.406Z,0.00
2019-05-16T00:41:43.379Z,0.00
2019-05-16T00:42:43.363Z,0.00
2019-05-16T00:43:43.357Z,0.00
2019-05-16T00:44:43.345Z,0.00
2019-05-16T00:45:43.319Z,0.00
2019-05-16T00:46:43.306Z,0.00
2019-05-16T00:47:43.273Z,0.00
2019-05-16T00:48:43.264Z,0.00
2019-05-16T00:49:43.244Z,0.00
2019-05-16T00:50:43.238Z,0.00
2019-05-16T00:51:43.210Z,0.00
2019-05-16T00:52:43.197Z,0.00
2019-05-16T00:53:43.184Z,0.00
2019-05-16T00:54:43.182Z,0.00
2019-05-16T00:55:43.141Z,0.00
2019-05-16T00:56:43.137Z,0.00
2019-05-16T00:57:43.111Z,0.00
2019-05-16T00:58:43.089Z,0.00
2019-05-16T00:59:43.076Z,0.00
2019-05-16T01:00:43.061Z,0.00
2019-05-16T01:01:43.054Z,0.00
2019-05-16T01:02:43.024Z,0.00
2019-05-16T01:03:43.023Z,0.00
2019-05-16T01:04:42.997Z,0.00
2019-05-16T01:05:42.971Z,0.00
2019-05-16T01:06:42.982Z,0.00
2019-05-16T01:07:42.937Z,0.00
2019-05-16T01:08:42.917Z,0.00
2019-05-16T01:09:42.923Z,0.00
2019-05-16T01:16:03.804Z,0.00
2019-05-16T01:34:21.578Z,0.00
2019-05-16T01:35:21.710Z,0.00
2019-05-16T01:40:19.094Z,0.00
2019-05-16T01:41:18.664Z,0.00
2019-05-16T01:43:49.516Z,0.00
2019-05-16T01:44:49.193Z,0.00
2019-05-16T01:45:49.195Z,0.00
2019-05-16T01:46:49.332Z,0.00
2019-05-16T01:47:49.100Z,0.00
2019-05-16T01:48:49.245Z,0.00
2019-05-16T01:49:49.075Z,0.00
2019-05-16T01:50:49.112Z,0.00
2019-05-16T01:51:49.118Z,0.00
2019-05-16T01:52:49.197Z,0.00
2019-05-16T01:53:49.033Z,0.00
2019-05-16T01:54:49.094Z,0.00
2019-05-16T01:55:49.139Z,0.00
2019-05-16T01:56:48.969Z,0.00
2019-05-16T01:57:48.941Z,0.00
2019-05-16T01:58:49.191Z,0.00
2019-05-16T01:59:48.895Z,0.00
2019-05-16T02:01:00.985Z,0.00
2019-05-16T02:01:48.855Z,0.00
2019-05-16T02:02:48.961Z,0.00
2019-05-16T02:03:48.842Z,0.00
2019-05-16T02:04:48.827Z,0.00
2019-05-16T02:05:48.780Z,0.00
2019-05-16T02:06:54.434Z,0.00
2019-05-16T02:07:48.772Z,0.00
2019-05-16T02:08:48.929Z,0.00
2019-05-16T02:09:48.745Z,0.00
2019-05-16T02:10:48.739Z,0.00
2019-05-16T02:11:48.693Z,0.00
2019-05-16T02:12:49.133Z,0.00
2019-05-16T02:13:48.687Z,0.00
2019-05-16T02:14:48.647Z,0.00
2019-05-16T02:15:48.983Z,0.00
2019-05-16T02:16:48.613Z,0.00
2019-05-16T02:17:48.712Z,0.00
2019-05-16T02:18:48.960Z,0.00
2019-05-16T02:19:48.686Z,0.00
2019-05-16T02:20:48.530Z,0.00
2019-05-16T02:21:50.702Z,0.00
2019-05-16T02:22:48.492Z,0.00
2019-05-16T02:23:51.498Z,0.00
2019-05-16T02:24:48.470Z,0.00
2019-05-16T02:25:49.109Z,0.00
2019-05-16T02:26:49.289Z,0.00
2019-05-16T02:27:48.992Z,0.00
2019-05-16T02:28:50.648Z,0.00
2019-05-16T02:29:50.588Z,0.00
2019-05-16T02:30:51.407Z,0.00
2019-05-16T02:31:51.249Z,0.00
2019-05-16T02:32:51.929Z,0.00
2019-05-16T02:33:51.037Z,0.00
2019-05-16T02:34:51.321Z,0.00
2019-05-16T02:35:54.767Z,0.00
2019-05-16T02:37:09.548Z,0.00
2019-05-16T02:37:54.747Z,0.00
2019-05-16T02:38:51.474Z,0.00
2019-05-16T02:39:51.433Z,0.00
2019-05-16T02:40:54.399Z,0.00
2019-05-16T02:41:51.827Z,0.00
2019-05-16T02:42:51.231Z,0.00
2019-05-16T02:43:50.718Z,0.00
2019-05-16T02:44:50.958Z,0.00
2019-05-16T02:45:51.675Z,0.00
2019-05-16T02:46:50.868Z,0.00
2019-05-16T02:47:51.135Z,0.00
2019-05-16T02:48:51.565Z,0.00
2019-05-16T02:49:50.480Z,0.00
2019-05-16T02:50:50.911Z,0.00
2019-05-16T02:51:50.946Z,0.00
2019-05-16T02:52:51.385Z,0.00
2019-05-16T02:53:50.985Z,0.00
2019-05-16T02:54:51.512Z,0.00
2019-05-16T02:55:51.341Z,0.00
2019-05-16T02:56:50.468Z,0.00
2019-05-16T02:57:50.711Z,0.00
2019-05-16T02:58:51.675Z,0.00
2019-05-16T02:59:50.671Z,0.00
2019-05-16T03:00:51.223Z,0.00
2019-05-16T03:01:51.768Z,0.00
2019-05-16T03:02:50.401Z,0.00
2019-05-16T03:03:51.340Z,0.00
2019-05-16T03:04:51.393Z,0.00
2019-05-16T03:05:50.598Z,0.00
2019-05-16T03:06:51.203Z,0.00
2019-05-16T03:07:51.771Z,0.00
2019-05-16T03:08:50.689Z,0.00
2019-05-16T03:09:51.198Z,0.00
2019-05-16T03:10:47.707Z,0.00
2019-05-16T03:11:50.833Z,0.00
2019-05-16T03:12:47.662Z,0.00
2019-05-16T03:13:47.659Z,0.00
2019-05-16T03:14:50.407Z,0.00
2019-05-16T03:15:47.611Z,0.00
2019-05-16T03:16:50.423Z,0.00
2019-05-16T03:17:50.631Z,0.00
2019-05-16T03:18:47.820Z,0.00
2019-05-16T03:19:51.103Z,4.00
2019-05-16T03:20:47.741Z,4.00
2019-05-16T03:50:41.212Z,24.00
2019-05-16T03:51:41.449Z,28.00
2019-05-16T03:53:44.635Z,36.00
2019-05-16T03:54:44.603Z,36.00
2019-05-16T03:55:44.662Z,40.00
2019-05-16T03:56:44.652Z,48.00
2019-05-16T03:57:44.553Z,48.00
2019-05-16T03:58:44.553Z,52.00
2019-05-16T03:59:44.522Z,56.00
2019-05-16T04:00:45.868Z,64.00
2019-05-16T04:01:44.483Z,68.00
2019-05-16T04:02:45.802Z,72.00
2019-05-16T04:03:44.448Z,76.00
2019-05-16T04:04:44.433Z,76.00
2019-05-16T04:05:44.406Z,80.00
2019-05-16T04:06:44.397Z,88.00
2019-05-16T04:07:44.381Z,92.00
2019-05-16T04:08:44.384Z,96.00
2019-05-16T04:09:44.526Z,108.00
2019-05-16T04:10:44.471Z,116.00
2019-05-16T04:11:44.444Z,124.00
2019-05-16T04:12:44.425Z,136.00
2019-05-16T04:13:44.318Z,140.00
2019-05-16T04:14:44.256Z,152.00
2019-05-16T04:15:44.241Z,160.00
2019-05-16T04:16:44.222Z,168.00
2019-05-16T04:17:44.209Z,176.00
2019-05-16T04:18:44.189Z,180.00
2019-05-16T04:19:44.171Z,188.00
2019-05-16T04:20:44.157Z,192.00
2019-05-16T04:21:44.136Z,192.00
2019-05-16T04:22:44.123Z,196.00
2019-05-16T04:23:44.109Z,200.00
2019-05-16T04:24:44.088Z,204.00
2019-05-16T04:25:44.067Z,208.00
2019-05-16T04:26:44.057Z,208.00
2019-05-16T04:27:44.037Z,212.00
2019-05-16T04:28:44.016Z,216.00
2019-05-16T04:29:43.998Z,216.00
2019-05-16T04:30:43.996Z,220.00
2019-05-16T04:31:43.970Z,224.00
2019-05-16T04:32:43.951Z,224.00
2019-05-16T04:33:43.956Z,228.00
2019-05-16T04:34:43.914Z,236.00
2019-05-16T04:35:43.908Z,236.00
2019-05-16T04:36:43.873Z,240.00
2019-05-16T04:37:43.857Z,248.00
2019-05-16T04:38:46.793Z,252.00
2019-05-16T04:39:43.824Z,256.00
2019-05-16T04:40:43.825Z,260.00
2019-05-16T04:41:43.794Z,264.00
2019-05-16T04:42:43.770Z,264.00
2019-05-16T04:43:43.756Z,272.00
2019-05-16T04:44:43.755Z,276.00
2019-05-16T04:45:43.745Z,276.00
2019-05-16T04:46:43.699Z,280.00
2019-05-16T04:47:43.694Z,288.00
2019-05-16T04:48:43.684Z,292.00
2019-05-16T04:49:43.669Z,296.00
2019-05-16T04:50:43.640Z,300.00
2019-05-16T04:51:43.619Z,304.00
2019-05-16T04:52:43.612Z,308.00
2019-05-16T04:53:43.584Z,316.00
2019-05-16T04:54:43.564Z,328.00
2019-05-16T04:55:43.582Z,336.00
2019-05-16T04:56:43.539Z,352.00
2019-05-16T04:57:43.531Z,356.00
2019-05-16T04:58:43.497Z,372.00
2019-05-16T04:59:43.491Z,376.00
2019-05-16T05:00:43.471Z,392.00
2019-05-16T05:01:43.450Z,392.00
2019-05-16T05:02:43.440Z,400.00
2019-05-16T05:04:00.198Z,412.00
2019-05-16T05:04:43.398Z,420.00
2019-05-16T05:05:43.388Z,428.00
2019-05-16T05:06:43.366Z,436.00
2019-05-16T05:07:43.350Z,448.00
2019-05-16T05:08:54.534Z,456.00
2019-05-16T05:09:43.337Z,468.00
2019-05-16T05:10:43.304Z,480.00
2019-05-16T05:11:43.278Z,496.00
2019-05-16T05:12:43.273Z,508.00
2019-05-16T05:13:43.255Z,520.00
2019-05-16T05:14:43.232Z,532.00
2019-05-16T05:15:43.215Z,548.00
2019-05-16T05:16:43.196Z,568.00
2019-05-16T05:17:43.209Z,592.00
2019-05-16T05:18:43.164Z,620.00
2019-05-16T05:19:43.154Z,648.00
2019-05-16T05:20:43.151Z,684.00
2019-05-16T05:21:43.111Z,712.00
2019-05-16T05:22:43.102Z,744.00
2019-05-16T05:23:43.087Z,780.00
2019-05-16T05:24:43.081Z,816.00
2019-05-16T05:25:43.044Z,848.00
2019-05-16T05:26:43.028Z,876.00
2019-05-16T05:27:43.025Z,900.00
2019-05-16T05:28:43.004Z,908.00
2019-05-16T05:29:42.999Z,916.00
2019-05-16T05:30:42.967Z,912.00
2019-05-16T05:31:45.231Z,908.00
2019-05-16T05:32:42.933Z,908.00
2019-05-16T05:33:42.913Z,908.00
2019-05-16T05:34:42.926Z,916.00
2019-05-16T05:35:42.886Z,920.00
2019-05-16T05:36:42.876Z,924.00
2019-05-16T05:37:42.855Z,928.00
2019-05-16T05:38:42.835Z,936.00
2019-05-16T05:39:42.827Z,940.00
2019-05-16T05:40:42.805Z,948.00
2019-05-16T05:41:42.789Z,956.00
2019-05-16T05:42:42.780Z,976.00
2019-05-16T05:43:42.767Z,1000.00
2019-05-16T05:44:42.743Z,1028.00
2019-05-16T05:45:42.719Z,1056.00
2019-05-16T05:46:42.707Z,1080.00
2019-05-16T05:47:42.685Z,1108.00
2019-05-16T05:48:42.698Z,1128.00
2019-05-16T05:49:42.659Z,1148.00
2019-05-16T05:50:42.648Z,1168.00
2019-05-16T05:51:42.621Z,1176.00
2019-05-16T05:52:45.993Z,1188.00
2019-05-16T05:53:42.594Z,1196.00
2019-05-16T05:54:42.580Z,1196.00
2019-05-16T05:55:42.558Z,1200.00
2019-05-16T05:56:42.555Z,1208.00
2019-05-16T05:57:42.528Z,1212.00
2019-05-16T05:58:42.515Z,1216.00
2019-05-16T05:59:42.494Z,1224.00
2019-05-16T06:00:42.489Z,1232.00
2019-05-16T06:01:42.467Z,1244.00
2019-05-16T06:02:42.458Z,1252.00
2019-05-16T06:03:42.435Z,1264.00
2019-05-16T06:04:42.424Z,1272.00
2019-05-16T06:05:42.401Z,1284.00
2019-05-16T06:06:44.988Z,1292.00
2019-05-16T06:07:42.379Z,1300.00
2019-05-16T06:08:42.358Z,1304.00
2019-05-16T06:09:52.494Z,1308.00
2019-05-16T06:10:42.331Z,1320.00
2019-05-16T06:11:42.308Z,1328.00
2019-05-16T06:12:42.829Z,1328.00
2019-05-16T06:13:42.283Z,1324.00
2019-05-16T06:14:42.263Z,1316.00
2019-05-16T06:15:42.248Z,1312.00
2019-05-16T06:16:42.239Z,1304.00
2019-05-16T06:17:42.221Z,1296.00
2019-05-16T06:18:42.217Z,1288.00
2019-05-16T06:19:42.208Z,1276.00
2019-05-16T06:20:42.180Z,1272.00
2019-05-16T06:21:44.576Z,1268.00
2019-05-16T06:22:42.135Z,1272.00
2019-05-16T06:23:42.136Z,1260.00
2019-05-16T06:24:42.110Z,1260.00
2019-05-16T06:25:42.089Z,1264.00
2019-05-16T06:26:42.078Z,1268.00
2019-05-16T06:27:42.062Z,1276.00
2019-05-16T06:28:42.051Z,1280.00
2019-05-16T06:29:42.037Z,1284.00
2019-05-16T06:30:42.025Z,1288.00
2019-05-16T06:31:42.000Z,1292.00
2019-05-16T06:32:41.996Z,1304.00
2019-05-16T06:33:41.968Z,1328.00
2019-05-16T06:34:41.961Z,1364.00
2019-05-16T06:35:41.949Z,1404.00
2019-05-16T06:36:41.927Z,1464.00
2019-05-16T06:37:41.912Z,1536.00
2019-05-16T06:38:41.893Z,1620.00
2019-05-16T06:39:45.321Z,1720.00
2019-05-16T06:40:41.866Z,1836.00
2019-05-16T06:41:41.853Z,1992.00
2019-05-16T06:42:41.842Z,2180.00
2019-05-16T06:43:41.829Z,2380.00
2019-05-16T06:44:41.810Z,2560.00
2019-05-16T06:45:41.788Z,2828.00
2019-05-16T06:46:56.177Z,3296.00
2019-05-16T06:47:41.762Z,3804.00
2019-05-16T06:48:41.745Z,3352.00
2019-05-16T06:49:41.733Z,2796.00
2019-05-16T06:50:41.737Z,2652.00
2019-05-16T06:51:41.701Z,2580.00
2019-05-16T06:52:41.688Z,2552.00
2019-05-16T06:53:41.673Z,2548.00
2019-05-16T06:54:41.659Z,2576.00
2019-05-16T06:55:41.644Z,2612.00
2019-05-16T06:56:41.635Z,2700.00
2019-05-16T06:57:41.615Z,2756.00
2019-05-16T06:58:47.685Z,2804.00
2019-05-16T06:59:41.586Z,2832.00
2019-05-16T07:00:41.574Z,2856.00
2019-05-16T07:01:41.561Z,2896.00
2019-05-16T07:02:41.558Z,2968.00
2019-05-16T07:03:41.530Z,3040.00
2019-05-16T07:04:41.519Z,3112.00
2019-05-16T07:05:41.500Z,3136.00
2019-05-16T07:06:54.169Z,3100.00
2019-05-16T07:07:41.519Z,3080.00
2019-05-16T07:08:41.465Z,3092.00
2019-05-16T07:09:57.028Z,3152.00
2019-05-16T07:10:41.443Z,3280.00
2019-05-16T07:11:41.419Z,3180.00
2019-05-16T07:12:41.541Z,3160.00
2019-05-16T07:13:41.391Z,3020.00
2019-05-16T07:14:41.381Z,3004.00
2019-05-16T07:15:41.367Z,2980.00
2019-05-16T07:16:41.354Z,3140.00
2019-05-16T07:17:41.338Z,3020.00
2019-05-16T07:18:41.342Z,3004.00
2019-05-16T07:19:41.310Z,3040.00
2019-05-16T07:20:41.305Z,3152.00
2019-05-16T07:21:41.288Z,3336.00
2019-05-16T07:22:41.271Z,3908.00
2019-05-16T07:23:41.260Z,4500.00
2019-05-16T07:24:41.246Z,5184.00
2019-05-16T07:25:41.231Z,3832.00
2019-05-16T07:26:41.218Z,4148.00
2019-05-16T07:27:41.205Z,3812.00
2019-05-16T07:28:41.195Z,3364.00
2019-05-16T07:29:41.181Z,3104.00
2019-05-16T07:30:41.175Z,2956.00
2019-05-16T07:31:41.153Z,2792.00
2019-05-16T07:32:41.148Z,2704.00
2019-05-16T07:33:41.172Z,2740.00
2019-05-16T07:34:41.174Z,2816.00
2019-05-16T07:35:41.109Z,2868.00
2019-05-16T07:36:41.092Z,2916.00
2019-05-16T07:37:41.074Z,2988.00
2019-05-16T07:38:41.068Z,2940.00
2019-05-16T07:39:41.832Z,2912.00
2019-05-16T07:40:41.037Z,2900.00
2019-05-16T07:41:41.024Z,2948.00
2019-05-16T07:42:41.012Z,3400.00
2019-05-16T07:43:41.000Z,3044.00
2019-05-16T07:44:40.987Z,3116.00
2019-05-16T07:45:40.982Z,3316.00
2019-05-16T07:46:44.751Z,3520.00
2019-05-16T07:47:40.947Z,3804.00
2019-05-16T07:48:40.936Z,3804.00
2019-05-16T07:49:40.919Z,4072.00
2019-05-16T07:50:40.920Z,4404.00
2019-05-16T07:51:40.917Z,4612.00
2019-05-16T07:52:40.887Z,6204.00
2019-05-16T07:53:40.884Z,7596.00
2019-05-16T07:54:40.882Z,7844.00
2019-05-16T07:55:40.843Z,5376.00
2019-05-16T07:56:41.056Z,5820.00
2019-05-16T07:57:40.833Z,7016.00
2019-05-16T07:58:41.497Z,7284.00
2019-05-16T07:59:40.801Z,6900.00
2019-05-16T08:00:49.789Z,4924.00
2019-05-16T08:01:43.161Z,7116.00
2019-05-16T08:02:40.759Z,7060.00
2019-05-16T08:03:43.841Z,6148.00
2019-05-16T08:04:40.740Z,6904.00
2019-05-16T08:05:41.365Z,7020.00
2019-05-16T08:06:41.617Z,7028.00
2019-05-16T08:07:41.013Z,7044.00
2019-05-16T08:08:40.700Z,7192.00
2019-05-16T08:09:40.702Z,7304.00
2019-05-16T08:10:46.388Z,7464.00
2019-05-16T08:11:40.987Z,7332.00
2019-05-16T08:12:40.951Z,6824.00
2019-05-16T08:13:40.650Z,5084.00
2019-05-16T08:14:41.060Z,5704.00
2019-05-16T08:15:40.828Z,4564.00
2019-05-16T08:16:40.996Z,5508.00
2019-05-16T08:17:41.428Z,6408.00
2019-05-16T08:18:44.969Z,6348.00
2019-05-16T08:19:40.595Z,6304.00
2019-05-16T08:20:41.680Z,5952.00
2019-05-16T08:22:41.647Z,6020.00
2019-05-16T08:23:41.184Z,6100.00
2019-05-16T08:24:40.555Z,6184.00
2019-05-16T08:25:41.256Z,6392.00
2019-05-16T08:26:43.057Z,6200.00
2019-05-16T08:27:41.568Z,6088.00
2019-05-16T08:28:41.630Z,6092.00
2019-05-16T08:29:40.610Z,5776.00
2019-05-16T08:31:42.967Z,5292.00
2019-05-16T08:33:41.589Z,5256.00
2019-05-16T08:34:40.980Z,5532.00
2019-05-16T08:35:41.329Z,5420.00
2019-05-16T08:36:41.019Z,5172.00
2019-05-16T08:37:46.602Z,5016.00
2019-05-16T08:38:43.146Z,5156.00
2019-05-16T08:39:41.347Z,5264.00
2019-05-16T08:41:01.124Z,5156.00
2019-05-16T08:41:42.406Z,5480.00
2019-05-16T08:42:41.597Z,4764.00
2019-05-16T08:43:41.453Z,5852.00
2019-05-16T08:44:41.751Z,4680.00
2019-05-16T08:45:41.810Z,4540.00
2019-05-16T08:46:42.338Z,4620.00
2019-05-16T08:47:42.413Z,4444.00
2019-05-16T08:48:42.260Z,4344.00
2019-05-16T08:49:42.185Z,4428.00
2019-05-16T08:50:10.131Z,5384.00
2019-05-16T08:50:42.034Z,4604.00
2019-05-16T08:51:42.712Z,4576.00
2019-05-16T08:52:43.632Z,5280.00
2019-05-16T08:53:43.389Z,5392.00
2019-05-16T08:54:43.769Z,5488.00
2019-05-16T08:55:43.440Z,6832.00
2019-05-16T08:56:44.256Z,5164.00
2019-05-16T08:57:40.961Z,5868.00
2019-05-16T08:58:41.171Z,5736.00
2019-05-16T08:59:41.086Z,5992.00
2019-05-16T09:00:41.889Z,6128.00
2019-05-16T09:01:50.600Z,5696.00
2019-05-16T09:02:42.185Z,6676.00
2019-05-16T09:03:41.571Z,5780.00
2019-05-16T09:04:44.150Z,5240.00
2019-05-16T09:05:42.850Z,5112.00
2019-05-16T09:06:42.454Z,5172.00
2019-05-16T09:07:40.178Z,5852.00
2019-05-16T09:08:40.182Z,4660.00
2019-05-16T09:09:44.303Z,6080.00
2019-05-16T09:10:31.317Z,6128.00
2019-05-16T09:10:41.376Z,5704.00
2019-05-16T09:10:51.422Z,6180.00
2019-05-16T09:11:44.581Z,6084.00
2019-05-16T09:12:40.138Z,6984.00
2019-05-16T09:13:40.132Z,5332.00
2019-05-16T09:14:40.115Z,5756.00
2019-05-16T09:15:40.144Z,5224.00
2019-05-16T09:16:40.105Z,6616.00
2019-05-16T09:17:40.092Z,4952.00
2019-05-16T09:18:41.440Z,4788.00
2019-05-16T09:19:40.079Z,5200.00
2019-05-16T09:20:42.840Z,4656.00
2019-05-16T09:21:40.064Z,7680.00
2019-05-16T09:22:40.065Z,8188.00
2019-05-16T09:23:40.056Z,7572.00
2019-05-16T09:24:40.056Z,7912.00
2019-05-16T09:25:40.027Z,6292.00
2019-05-16T09:26:40.026Z,9512.00
2019-05-16T09:27:40.019Z,8532.00
2019-05-16T09:28:40.016Z,7724.00
2019-05-16T09:29:40.003Z,9332.00
2019-05-16T09:30:39.987Z,8800.00
2019-05-16T09:31:39.985Z,9400.00
2019-05-16T09:32:42.773Z,6816.00
2019-05-16T09:33:39.977Z,8392.00
2019-05-16T09:34:39.962Z,5632.00
2019-05-16T09:35:39.971Z,4216.00
2019-05-16T09:36:39.971Z,4420.00
2019-05-16T09:37:39.947Z,5548.00
2019-05-16T09:38:39.935Z,9432.00
2019-05-16T09:39:39.937Z,7492.00
2019-05-16T09:40:39.927Z,8424.00
2019-05-16T09:41:54.484Z,5568.00
2019-05-16T09:42:39.911Z,7944.00
2019-05-16T09:43:39.920Z,8472.00
2019-05-16T09:44:39.954Z,6608.00
2019-05-16T09:45:39.890Z,5940.00
2019-05-16T09:46:39.902Z,4936.00
2019-05-16T09:47:39.881Z,5932.00
2019-05-16T09:48:39.873Z,8072.00
2019-05-16T09:49:39.862Z,7640.00
2019-05-16T09:50:39.863Z,7604.00
2019-05-16T09:51:39.860Z,9476.00
2019-05-16T09:52:39.858Z,8164.00
2019-05-16T09:53:39.838Z,7660.00
2019-05-16T09:54:39.856Z,6864.00
2019-05-16T09:55:39.846Z,8276.00
2019-05-16T09:56:39.820Z,7804.00
2019-05-16T09:57:39.824Z,7544.00
2019-05-16T09:58:39.811Z,8100.00
2019-05-16T09:59:39.820Z,10812.00
2019-05-16T10:00:39.810Z,6792.00
2019-05-16T10:01:39.791Z,5312.00
2019-05-16T10:02:39.792Z,4748.00
2019-05-16T10:03:39.791Z,4608.00
2019-05-16T10:04:39.796Z,4632.00
2019-05-16T10:05:39.783Z,4816.00
2019-05-16T10:06:39.769Z,4912.00
2019-05-16T10:07:39.770Z,4844.00
2019-05-16T10:08:39.790Z,4896.00
2019-05-16T10:09:44.981Z,5168.00
2019-05-16T10:10:39.749Z,5416.00
2019-05-16T10:11:41.734Z,6400.00
2019-05-16T10:12:39.738Z,6204.00
2019-05-16T10:13:39.728Z,6232.00
2019-05-16T10:14:39.735Z,7020.00
2019-05-16T10:15:39.726Z,7088.00
2019-05-16T10:16:39.721Z,6492.00
2019-05-16T10:17:39.715Z,4976.00
2019-05-16T10:18:39.761Z,5076.00
2019-05-16T10:19:39.702Z,4936.00
2019-05-16T10:20:39.797Z,5068.00
2019-05-16T10:21:39.691Z,6604.00
2019-05-16T10:22:39.686Z,7512.00
2019-05-16T10:23:39.677Z,8604.00
2019-05-16T10:24:39.674Z,6484.00
2019-05-16T10:25:39.657Z,5764.00
2019-05-16T10:26:39.664Z,7580.00
2019-05-16T10:27:39.656Z,5652.00
2019-05-16T10:28:39.648Z,5376.00
2019-05-16T10:29:39.638Z,4504.00
2019-05-16T10:30:39.638Z,4440.00
2019-05-16T10:31:48.409Z,4696.00
2019-05-16T10:32:39.982Z,4660.00
2019-05-16T10:33:39.629Z,4348.00
2019-05-16T10:34:39.614Z,8284.00
2019-05-16T10:35:39.636Z,6872.00
2019-05-16T10:36:39.605Z,8668.00
2019-05-16T10:37:39.596Z,5512.00
2019-05-16T10:38:39.592Z,9044.00
2019-05-16T10:39:39.585Z,9312.00
2019-05-16T10:40:39.580Z,9336.00
2019-05-16T10:41:39.573Z,9272.00
2019-05-16T10:42:39.562Z,9144.00
2019-05-16T10:43:39.596Z,9024.00
2019-05-16T10:44:39.561Z,8640.00
2019-05-16T10:45:39.551Z,9024.00
2019-05-16T10:46:39.556Z,7128.00
2019-05-16T10:47:39.544Z,7392.00
2019-05-16T10:48:39.537Z,6368.00
2019-05-16T10:49:41.773Z,8964.00
2019-05-16T10:50:39.549Z,8628.00
2019-05-16T10:51:39.564Z,7284.00
2019-05-16T10:52:39.522Z,9084.00
2019-05-16T10:54:54.085Z,8888.00
2019-05-16T10:55:39.510Z,7708.00
2019-05-16T10:56:40.498Z,8356.00
2019-05-16T10:57:39.589Z,7900.00
2019-05-16T10:58:59.592Z,4708.00
2019-05-16T11:00:02.085Z,8932.00
2019-05-16T11:01:05.181Z,8932.00
2019-05-16T11:01:39.486Z,8400.00
2019-05-16T11:02:39.564Z,8096.00
2019-05-16T11:03:39.481Z,8676.00
2019-05-16T11:04:53.725Z,8984.00
2019-05-16T11:05:39.701Z,8856.00
2019-05-16T11:06:39.473Z,8200.00
2019-05-16T11:07:39.473Z,8692.00
2019-05-16T11:08:39.726Z,8356.00
2019-05-16T11:09:43.499Z,6448.00
2019-05-16T11:10:39.475Z,7188.00
2019-05-16T11:11:39.461Z,5852.00
2019-05-16T11:12:50.136Z,6412.00
2019-05-16T11:13:39.449Z,7008.00
2019-05-16T11:14:39.452Z,8136.00
2019-05-16T11:15:39.463Z,9112.00
2019-05-16T11:16:39.474Z,9092.00
2019-05-16T11:17:39.449Z,9332.00
2019-05-16T11:18:39.447Z,9580.00
2019-05-16T11:19:39.449Z,9756.00
2019-05-16T11:20:39.460Z,9948.00
2019-05-16T11:21:39.439Z,10080.00
2019-05-16T11:22:39.448Z,10332.00
2019-05-16T11:23:39.440Z,10632.00
2019-05-16T11:24:39.499Z,11172.00
2019-05-16T11:25:39.425Z,6336.00
2019-05-16T11:26:39.431Z,7252.00
2019-05-16T11:27:39.431Z,8720.00
2019-05-16T11:28:39.476Z,5984.00
2019-05-16T11:29:39.427Z,5444.00
2019-05-16T11:30:39.450Z,4708.00
2019-05-16T11:31:39.426Z,6248.00
2019-05-16T11:32:39.421Z,10888.00
2019-05-16T11:33:39.425Z,11316.00
2019-05-16T11:34:39.428Z,9296.00
2019-05-16T11:35:39.422Z,8232.00
2019-05-16T11:36:39.420Z,10684.00
2019-05-16T11:37:39.419Z,10136.00
2019-05-16T11:38:39.476Z,10016.00
2019-05-16T11:39:39.419Z,10444.00
2019-05-16T11:40:39.419Z,11008.00
2019-05-16T11:41:39.414Z,6776.00
2019-05-16T11:42:39.418Z,4484.00
2019-05-16T11:43:39.415Z,4824.00
2019-05-16T11:44:39.415Z,4728.00
2019-05-16T11:45:39.413Z,5484.00
2019-05-16T11:46:39.413Z,7580.00
2019-05-16T11:47:39.415Z,11640.00
2019-05-16T11:48:39.413Z,4012.00
2019-05-16T11:49:39.411Z,5608.00
2019-05-16T11:50:39.411Z,5704.00
2019-05-16T11:51:39.404Z,9300.00
2019-05-16T11:52:40.844Z,11836.00
2019-05-16T11:53:39.398Z,11872.00
2019-05-16T11:54:39.403Z,12196.00
2019-05-16T11:55:51.729Z,12632.00
2019-05-16T11:56:39.404Z,12880.00
2019-05-16T11:57:39.402Z,13120.00
2019-05-16T11:58:39.402Z,13448.00
2019-05-16T11:59:39.402Z,8296.00
2019-05-16T12:00:39.401Z,11620.00
2019-05-16T12:01:39.398Z,14372.00
2019-05-16T12:02:42.655Z,13380.00
2019-05-16T12:03:39.420Z,14492.00
2019-05-16T12:04:39.406Z,14620.00
2019-05-16T12:05:39.400Z,14696.00
2019-05-16T12:06:39.403Z,14880.00
2019-05-16T12:07:44.403Z,15180.00
2019-05-16T12:08:39.399Z,15808.00
2019-05-16T12:09:46.986Z,15872.00
2019-05-16T12:10:39.410Z,15072.00
2019-05-16T12:11:39.417Z,16480.00
2019-05-16T12:12:39.413Z,17184.00
2019-05-16T12:13:39.415Z,7700.00
2019-05-16T12:14:39.409Z,5992.00
2019-05-16T12:15:39.417Z,12720.00
2019-05-16T12:16:39.417Z,16416.00
2019-05-16T12:17:39.425Z,13856.00
2019-05-16T12:18:39.423Z,17120.00
2019-05-16T12:19:43.953Z,16864.00
2019-05-16T12:20:39.435Z,16960.00
2019-05-16T12:21:39.428Z,16832.00
2019-05-16T12:22:39.449Z,16512.00
2019-05-16T12:23:39.436Z,16384.00
2019-05-16T12:24:41.529Z,11460.00
2019-05-16T12:25:39.440Z,8920.00
2019-05-16T12:26:39.435Z,6240.00
2019-05-16T12:27:42.351Z,7712.00
2019-05-16T12:28:39.450Z,5164.00
2019-05-16T12:29:39.452Z,5088.00
2019-05-16T12:30:40.430Z,6440.00
2019-05-16T12:31:54.212Z,10972.00
2019-05-16T12:32:39.448Z,18752.00
2019-05-16T12:33:39.457Z,17280.00
2019-05-16T12:34:39.474Z,18912.00
2019-05-16T12:35:39.461Z,12356.00
2019-05-16T12:36:39.467Z,8924.00
2019-05-16T12:37:39.476Z,9876.00
2019-05-16T12:38:39.466Z,15336.00
2019-05-16T12:39:39.467Z,9680.00
2019-05-16T12:40:39.475Z,12268.00
2019-05-16T12:41:41.406Z,18112.00
2019-05-16T12:42:39.474Z,17696.00
2019-05-16T12:43:48.952Z,17472.00
2019-05-16T12:44:39.467Z,18336.00
2019-05-16T12:45:39.495Z,17856.00
2019-05-16T12:46:39.469Z,18336.00
2019-05-16T12:47:39.477Z,13104.00
2019-05-16T12:48:39.522Z,13612.00
2019-05-16T12:49:39.479Z,17888.00
2019-05-16T12:50:39.485Z,19648.00
2019-05-16T12:51:39.483Z,19360.00
2019-05-16T12:52:39.497Z,19552.00
2019-05-16T12:53:39.494Z,18496.00
2019-05-16T12:54:39.494Z,11448.00
2019-05-16T12:55:39.495Z,7684.00
2019-05-16T12:56:39.501Z,8100.00
2019-05-16T12:57:39.507Z,6628.00
2019-05-16T12:58:42.325Z,5324.00
2019-05-16T12:59:42.304Z,5612.00
2019-05-16T13:00:44.039Z,7488.00
2019-05-16T13:01:39.516Z,7548.00
2019-05-16T13:02:39.524Z,5108.00
2019-05-16T13:03:39.526Z,5248.00
2019-05-16T13:04:39.526Z,5052.00
2019-05-16T13:05:39.531Z,4080.00
2019-05-16T13:06:39.517Z,3824.00
2019-05-16T13:07:39.520Z,3756.00
2019-05-16T13:08:39.524Z,3860.00
2019-05-16T13:09:39.523Z,4328.00
2019-05-16T13:10:39.524Z,4900.00
2019-05-16T13:11:39.523Z,5112.00
2019-05-16T13:12:39.517Z,7028.00
2019-05-16T13:13:39.521Z,10028.00
2019-05-16T13:14:40.448Z,15392.00
2019-05-16T13:15:42.340Z,9944.00
2019-05-16T13:16:39.538Z,4940.00
2019-05-16T13:17:39.513Z,6284.00
2019-05-16T13:18:39.508Z,5124.00
2019-05-16T13:19:44.271Z,6436.00
2019-05-16T13:20:41.360Z,4844.00
2019-05-16T13:21:39.510Z,4700.00
2019-05-16T13:22:39.505Z,4892.00